Terminal Aerodrome Forecast
Issued by NWS Shreveport, LA

Home | Current Version | Previous Version | Text Only | Print | Product List | Glossary On
Versions: 1 2 3 4 5 6 7 8 9 10 11 12 13 14 15 16 17 18 19 20 21 22 23 24 25 26 27 28 29 30 31
303
FTUS44 KSHV 251721
TAFLFK
TAF
KLFK 251721Z 2518/2618 07008KT P6SM VCSH FEW020 BKN030
     FM252200 08004KT P6SM SCT040 BKN100
     FM260000 09004KT P6SM BKN045 BKN100 BKN250=

USA.gov is the U.S. government's official web portal to all federal, state and local government web resources and services.